createdAt,value
2022-11-16T00:00:07.061Z,66.62988
2022-11-16T00:02:07.213Z,66.47656
2022-11-16T00:04:07.046Z,66.61328
2022-11-16T00:05:29.071Z,66.55078
2022-11-16T00:07:29.211Z,65.92383
2022-11-16T00:09:29.018Z,66.27148
2022-11-16T00:11:29.055Z,66.42578
2022-11-16T00:13:29.041Z,66.6123
2022-11-16T00:15:29.074Z,66.52441
2022-11-16T00:17:29.077Z,66.16504
2022-11-16T00:21:12.699Z,67.34473
2022-11-16T00:23:12.645Z,68.29102
2022-11-16T00:25:12.694Z,68.80469
2022-11-16T00:27:12.671Z,68.7959
2022-11-16T00:29:12.670Z,67.74023
2022-11-16T00:31:12.655Z,68.11523
2022-11-16T00:33:12.715Z,67.88281
2022-11-16T00:36:03.489Z,66.81055
2022-11-16T00:38:03.510Z,66.55469
2022-11-16T00:40:03.519Z,66.58008
2022-11-16T00:42:03.524Z,66.46094
2022-11-16T00:44:03.548Z,66.46777
2022-11-16T00:46:03.489Z,66.0293
2022-11-16T00:48:03.529Z,66.71191
2022-11-16T00:50:45.751Z,66.39844
2022-11-16T00:52:45.705Z,67.35352
2022-11-16T00:54:45.732Z,67.19336
2022-11-16T00:56:45.683Z,68.36621
2022-11-16T00:58:45.735Z,68.43164
2022-11-16T01:00:45.713Z,68.08691
2022-11-16T01:02:45.674Z,67.53711
2022-11-16T01:04:45.702Z,66.81543
2022-11-16T01:06:50.665Z,67.57227
2022-11-16T01:08:50.508Z,67.07813
2022-11-16T01:10:50.563Z,67.11816
2022-11-16T01:12:50.480Z,67.1123
2022-11-16T01:14:50.536Z,67.18848
2022-11-16T01:16:50.512Z,67.4502
2022-11-16T01:18:50.516Z,69.02148
2022-11-16T01:21:11.166Z,69.88965
2022-11-16T01:23:11.166Z,69.63574
2022-11-16T01:25:11.240Z,69.79102
2022-11-16T01:27:11.188Z,70.25195
2022-11-16T01:29:11.161Z,69.15918
2022-11-16T01:31:11.144Z,68.60254
2022-11-16T01:33:11.164Z,69.37793
2022-11-16T01:36:55.032Z,69.88379
2022-11-16T01:38:55.097Z,69.02148
2022-11-16T01:40:55.024Z,69.50684
2022-11-16T01:42:55.046Z,70.55762
2022-11-16T01:44:55.064Z,70.03027
2022-11-16T01:46:55.012Z,69.25684
2022-11-16T01:48:55.027Z,68.8252
2022-11-16T01:52:05.122Z,68.10156
2022-11-16T01:54:05.138Z,68.50684
2022-11-16T01:56:05.125Z,67.98047
2022-11-16T01:58:05.128Z,67.97754
2022-11-16T02:00:05.147Z,67.95996
2022-11-16T02:02:05.113Z,67.6543
2022-11-16T02:04:05.098Z,67.625
2022-11-16T02:07:29.453Z,68.27637
2022-11-16T02:09:29.432Z,67.70996
2022-11-16T02:11:29.410Z,67.40332
2022-11-16T02:13:29.422Z,67.08887
2022-11-16T02:15:29.427Z,67.13965
2022-11-16T02:17:29.442Z,67.19727
2022-11-16T02:19:29.379Z,67.16016
2022-11-16T02:22:13.280Z,67.5
2022-11-16T02:24:13.184Z,67.49707
2022-11-16T02:26:13.266Z,67.47656
2022-11-16T02:28:13.239Z,67.70215
2022-11-16T02:30:13.204Z,67.68164
2022-11-16T02:32:13.206Z,67.51953
2022-11-16T02:34:13.227Z,69.44824
2022-11-16T02:37:01.835Z,69.06934
2022-11-16T02:39:01.905Z,68.24121
2022-11-16T02:41:01.852Z,68.14453
2022-11-16T02:43:01.874Z,67.88672
2022-11-16T02:45:01.862Z,68.5293
2022-11-16T02:47:01.995Z,68.47461
2022-11-16T02:49:01.966Z,69.09668
2022-11-16T02:52:47.507Z,69.64648
2022-11-16T02:54:47.337Z,70.40527
2022-11-16T02:56:47.221Z,70.54102
2022-11-16T02:58:47.314Z,69.97168
2022-11-16T03:00:47.341Z,70.09473
2022-11-16T03:02:47.487Z,70.60742
2022-11-16T03:04:47.247Z,70.20117
2022-11-16T03:08:00.608Z,69.14551
2022-11-16T03:10:00.535Z,69.74512
2022-11-16T03:12:00.543Z,70.27051
2022-11-16T03:14:00.598Z,69.38379
2022-11-16T03:16:00.536Z,68.59863
2022-11-16T03:18:00.569Z,68.15039
2022-11-16T03:20:00.638Z,68.4834
2022-11-16T03:22:50.715Z,70.2002
2022-11-16T03:24:50.773Z,69.39844
2022-11-16T03:26:50.777Z,68.85547
2022-11-16T03:28:50.773Z,69.0166
2022-11-16T03:30:50.749Z,68.3623
2022-11-16T03:32:50.759Z,68.10742
2022-11-16T03:34:50.804Z,67.54004
2022-11-16T03:38:01.411Z,67.33594
2022-11-16T03:40:01.481Z,67.45703
2022-11-16T03:42:01.441Z,69.03223
2022-11-16T03:44:01.438Z,69.24023
2022-11-16T03:46:01.522Z,68.86035
2022-11-16T03:48:01.558Z,68.98145
2022-11-16T03:50:01.436Z,68.77344
2022-11-16T03:53:29.622Z,69.41016
2022-11-16T03:55:29.638Z,68.60156
2022-11-16T03:57:29.647Z,68.84375
2022-11-16T03:59:29.633Z,69.32324
2022-11-16T04:01:29.861Z,69.87402
2022-11-16T04:03:29.654Z,69.08203
2022-11-16T04:05:29.643Z,68.63672
2022-11-16T04:08:12.649Z,69.76758
2022-11-16T04:10:12.582Z,69.45508
2022-11-16T04:12:12.657Z,69.12891
2022-11-16T04:14:12.651Z,68.80566
2022-11-16T04:16:12.595Z,68.24414
2022-11-16T04:18:12.645Z,68.73535
2022-11-16T04:20:12.613Z,68.69922
2022-11-16T04:23:36.503Z,68.74219
2022-11-16T04:25:36.437Z,68.65527
2022-11-16T04:27:36.460Z,68.33008
2022-11-16T04:29:36.451Z,68.85449
2022-11-16T04:31:36.468Z,68.09277
2022-11-16T04:33:36.522Z,68.40625
2022-11-16T04:35:36.470Z,68.02539
2022-11-16T04:38:22.742Z,68.38965
2022-11-16T04:40:22.793Z,67.86719
2022-11-16T04:42:22.738Z,67.51953
2022-11-16T04:44:30.092Z,68.65234
2022-11-16T04:46:22.717Z,69.56348
2022-11-16T04:48:22.749Z,70.14063
2022-11-16T04:50:22.681Z,69.63867
2022-11-16T04:52:22.778Z,68.8125
2022-11-16T04:54:04.084Z,68.24023
2022-11-16T04:56:04.034Z,68.05762
2022-11-16T04:58:04.068Z,68.10742
2022-11-16T05:00:03.993Z,68.53418
2022-11-16T05:02:04.041Z,69.10645
2022-11-16T05:04:04.230Z,68.77246
2022-11-16T05:06:04.072Z,68.12598
2022-11-16T05:09:31.761Z,67.85742
2022-11-16T05:11:31.704Z,70.82422
2022-11-16T05:13:31.677Z,71.00488
2022-11-16T05:15:31.819Z,70.24023
2022-11-16T05:17:31.724Z,69.94336
2022-11-16T05:19:31.681Z,69.60938
2022-11-16T05:21:31.724Z,70.07227
2022-11-16T05:24:01.685Z,70.94043
2022-11-16T05:26:01.565Z,70.19922
2022-11-16T05:28:01.505Z,71.00488
2022-11-16T05:30:01.456Z,70.2207
2022-11-16T05:32:01.613Z,70.39063
2022-11-16T05:34:01.506Z,70.1377
2022-11-16T05:36:01.504Z,70.10156
2022-11-16T05:39:28.953Z,70.92773
2022-11-16T05:41:25.916Z,70.04688
2022-11-16T05:43:25.898Z,69.50586
2022-11-16T05:45:25.939Z,69.99121
2022-11-16T05:47:25.993Z,71.6123
2022-11-16T05:49:25.904Z,71.92188
2022-11-16T05:51:26.058Z,71.90625
2022-11-16T05:54:31.935Z,71.20313
2022-11-16T05:56:32.057Z,71.37109
2022-11-16T05:58:33.055Z,70.62891
2022-11-16T06:00:31.895Z,72.05469
2022-11-16T06:02:32.081Z,71.47949
2022-11-16T06:04:32.078Z,72.50195
2022-11-16T06:06:31.988Z,71.99023
2022-11-16T06:09:41.323Z,70.74414
2022-11-16T06:11:41.570Z,70.25977
2022-11-16T06:13:41.491Z,69.99902
2022-11-16T06:15:41.378Z,69.71973
2022-11-16T06:17:41.949Z,69.97656
2022-11-16T06:19:41.311Z,71.46973
2022-11-16T06:21:41.338Z,71.27344
2022-11-16T06:24:39.075Z,70.75684
2022-11-16T06:26:39.120Z,70.67578
2022-11-16T06:28:39.177Z,69.83398
2022-11-16T06:30:39.099Z,69.47754
2022-11-16T06:32:39.038Z,70.27148
2022-11-16T06:34:39.385Z,71.0166
2022-11-16T06:36:39.096Z,71.28223
2022-11-16T06:39:49.948Z,71.07617
2022-11-16T06:41:49.987Z,71.45703
2022-11-16T06:43:50.013Z,72.30371
2022-11-16T06:45:49.932Z,72.10938
2022-11-16T06:47:49.953Z,71.52539
2022-11-16T06:49:50.809Z,71.13086
2022-11-16T06:51:50.000Z,70.75879
2022-11-16T06:55:18.306Z,70.98926
2022-11-16T06:57:18.361Z,71.13379
2022-11-16T06:59:18.377Z,70.71094
2022-11-16T07:01:18.461Z,71.04395
2022-11-16T07:03:18.378Z,71.24902
2022-11-16T07:05:18.728Z,71.05859
2022-11-16T07:07:18.492Z,70.24902
2022-11-16T07:10:11.152Z,69.56641
2022-11-16T07:12:11.140Z,69.91504
2022-11-16T07:14:11.188Z,70.75586
2022-11-16T07:16:11.162Z,70.51855
2022-11-16T07:18:11.178Z,69.92676
2022-11-16T07:26:01.182Z,74
2022-11-16T07:27:45.278Z,76.04395
2022-11-16T07:29:45.066Z,75.09668
2022-11-16T07:31:45.021Z,73.89258
2022-11-16T07:33:44.954Z,73.29395
2022-11-16T07:35:45.110Z,72.55469
2022-11-16T07:37:45.090Z,72.05762
2022-11-16T07:39:45.381Z,72.90332
2022-11-16T07:41:49.951Z,71.87012
2022-11-16T07:43:53.543Z,73.2002
2022-11-16T07:45:49.674Z,72.43359
2022-11-16T07:47:49.691Z,72.18164
2022-11-16T07:49:49.705Z,70.83984
2022-11-16T07:51:49.681Z,70.64844
2022-11-16T07:53:49.699Z,71.37891
2022-11-16T07:56:52.130Z,69.34082
2022-11-16T07:58:52.070Z,68.93262
2022-11-16T08:00:52.107Z,68.27539
2022-11-16T08:02:52.045Z,67.37891
2022-11-16T08:04:51.994Z,67.46582
2022-11-16T08:06:52.296Z,67.7627
2022-11-16T08:08:59.013Z,67.53906
2022-11-16T08:12:10.081Z,65.60547
2022-11-16T08:14:10.048Z,65.39355
2022-11-16T08:16:09.979Z,66.37695
2022-11-16T08:18:09.954Z,65.83008
2022-11-16T08:20:09.980Z,65.39258
2022-11-16T08:22:09.985Z,66.30762
2022-11-16T08:24:10.001Z,65.86426
2022-11-16T08:27:22.619Z,65.94727
2022-11-16T08:29:22.542Z,66.34961
2022-11-16T08:31:22.592Z,64.56152
2022-11-16T08:33:22.555Z,64.10254
2022-11-16T08:35:22.578Z,65.10156
2022-11-16T08:37:22.566Z,66.24707
2022-11-16T08:39:22.502Z,65.37793
2022-11-16T08:42:27.817Z,64.41895
2022-11-16T08:44:27.532Z,63.08496
2022-11-16T08:46:27.809Z,62.88672
2022-11-16T08:48:27.445Z,63.02637
2022-11-16T08:50:27.654Z,62.36621
2022-11-16T08:52:27.608Z,62.47461
2022-11-16T08:54:27.445Z,63.4834
2022-11-16T08:57:57.331Z,62.15039
2022-11-16T08:59:57.367Z,62.5459
2022-11-16T09:01:57.443Z,61.76855
2022-11-16T09:03:57.298Z,61.99219
2022-11-16T09:05:57.267Z,61.57617
2022-11-16T09:07:57.208Z,62.07813
2022-11-16T09:09:57.187Z,61.92871
2022-11-16T09:14:52.784Z,61.38281
2022-11-16T09:16:52.694Z,60.58105
2022-11-16T09:18:52.822Z,61.46094
2022-11-16T09:20:52.744Z,60.9668
2022-11-16T09:22:52.767Z,59.93359
2022-11-16T09:24:52.697Z,59.32617
2022-11-16T09:28:10.362Z,61.55859
2022-11-16T09:30:10.511Z,60.15527
2022-11-16T09:32:10.346Z,58.59082
2022-11-16T09:34:10.502Z,57.85742
2022-11-16T09:36:10.379Z,56.70313
2022-11-16T09:42:22.406Z,57.03516
2022-11-16T09:44:20.384Z,55.87207
2022-11-16T09:46:20.660Z,55.0957
2022-11-16T09:48:20.539Z,54.98438
2022-11-16T09:50:20.431Z,55.4082
2022-11-16T09:52:20.356Z,55.09863
2022-11-16T09:54:20.367Z,53.98242
2022-11-16T09:56:22.847Z,53.98926
2022-11-16T09:58:12.071Z,53.29199
2022-11-16T10:00:12.073Z,53.13477
2022-11-16T10:02:12.094Z,54.06445
2022-11-16T10:04:12.575Z,53.50684
2022-11-16T10:06:12.187Z,54.97266
2022-11-16T10:08:12.196Z,53.99805
2022-11-16T10:10:14.862Z,54.53125
2022-11-16T10:13:45.386Z,53.96094
2022-11-16T10:15:45.356Z,53.86426
2022-11-16T10:17:45.509Z,52.8125
2022-11-16T10:19:45.320Z,52.27637
2022-11-16T10:21:45.495Z,52.56738
2022-11-16T10:23:45.376Z,52.24121
2022-11-16T10:25:45.375Z,52.84277
2022-11-16T10:28:43.953Z,53.19531
2022-11-16T10:30:43.988Z,53.08008
2022-11-16T10:32:43.933Z,53.85547
2022-11-16T10:34:43.977Z,54.3252
2022-11-16T10:36:43.931Z,53.17773
2022-11-16T10:38:44.117Z,53.375
2022-11-16T10:40:43.934Z,54.10645
2022-11-16T10:44:05.421Z,54.10156
2022-11-16T10:46:05.380Z,53.9668
2022-11-16T10:48:05.389Z,54.10645
2022-11-16T10:50:05.520Z,54.23145
2022-11-16T10:52:05.445Z,54.42285
2022-11-16T10:54:05.550Z,54.39453
2022-11-16T10:56:05.421Z,54.6875
2022-11-16T10:58:47.977Z,54.53223
2022-11-16T11:00:48.085Z,54.14355
2022-11-16T11:02:47.909Z,54.06641
2022-11-16T11:04:47.965Z,55.02051
2022-11-16T11:06:48.173Z,54.94141
2022-11-16T11:08:47.967Z,55.08203
2022-11-16T11:13:33.743Z,54.87207
2022-11-16T11:15:32.816Z,55.56934
2022-11-16T11:17:32.814Z,55.80273
2022-11-16T11:19:33.853Z,55.48828
2022-11-16T11:21:32.824Z,55.34277
2022-11-16T11:23:33.682Z,55.29492
2022-11-16T11:25:32.834Z,54.96387
2022-11-16T11:27:32.803Z,54.60352
2022-11-16T11:29:34.191Z,54.85352
2022-11-16T11:31:34.029Z,54.44043
2022-11-16T11:33:34.806Z,54.33789
2022-11-16T11:35:34.059Z,54.51074
2022-11-16T11:37:34.058Z,54.3584
2022-11-16T11:41:34.171Z,54.52051
2022-11-16T11:43:53.292Z,54.37012
2022-11-16T11:45:53.726Z,53.97363
2022-11-16T11:48:01.134Z,53.36719
2022-11-16T11:49:53.373Z,54.21777
2022-11-16T11:51:53.290Z,54.10742
2022-11-16T11:53:53.339Z,54.66113
2022-11-16T11:55:53.312Z,54.75684
2022-11-16T11:57:53.307Z,54.47852
2022-11-16T11:59:36.394Z,55.24414
2022-11-16T12:01:36.480Z,55.13086
2022-11-16T12:03:37.031Z,54.9209
2022-11-16T12:05:36.354Z,55.17773
2022-11-16T12:07:36.581Z,55.29395
2022-11-16T12:09:36.409Z,55.53516
2022-11-16T12:11:36.345Z,55.28125
2022-11-16T12:14:37.437Z,56.30371
2022-11-16T12:16:37.278Z,56.25977
2022-11-16T12:18:37.452Z,56.03223
2022-11-16T12:20:37.277Z,55.48926
2022-11-16T12:22:37.282Z,55.63379
2022-11-16T12:24:37.304Z,55.53418
2022-11-16T12:26:37.324Z,54.91309
2022-11-16T12:29:22.628Z,55.2168
2022-11-16T12:31:22.693Z,54.99902
2022-11-16T12:33:22.811Z,55.0625
2022-11-16T12:35:22.592Z,55.05664
2022-11-16T12:37:22.867Z,54.50879
2022-11-16T12:39:22.651Z,54.96289
2022-11-16T12:41:22.674Z,55.02539
2022-11-16T12:43:22.601Z,55.44238
2022-11-16T12:44:59.754Z,54.77832
2022-11-16T12:46:59.882Z,55.24414
2022-11-16T12:48:59.580Z,55.16504
2022-11-16T12:50:59.685Z,55.11523
2022-11-16T12:52:59.614Z,54.77148
2022-11-16T12:55:26.608Z,54.15527
2022-11-16T12:56:59.576Z,54.18359
2022-11-16T12:59:56.611Z,53.83008
2022-11-16T13:02:00.960Z,54.05957
2022-11-16T13:03:56.596Z,53.66406
2022-11-16T13:05:56.551Z,54.48047
2022-11-16T13:07:56.614Z,54.17773
2022-11-16T13:09:56.575Z,54.76074
2022-11-16T13:11:56.579Z,54.51563
2022-11-16T13:15:18.659Z,54.60254
2022-11-16T13:17:18.586Z,54.18945
2022-11-16T13:19:18.620Z,53.85059
2022-11-16T13:21:18.640Z,53.94824
2022-11-16T13:23:18.752Z,54.28223
2022-11-16T13:25:18.649Z,54.26367
2022-11-16T13:27:18.595Z,54.15039
2022-11-16T13:30:19.605Z,54.2207
2022-11-16T13:32:19.600Z,54.28711
2022-11-16T13:34:19.635Z,53.84863
2022-11-16T13:36:19.692Z,54.05957
2022-11-16T13:38:19.624Z,54.92285
2022-11-16T13:40:19.727Z,54.76855
2022-11-16T13:42:19.570Z,54.82813
2022-11-16T13:46:02.941Z,54.16016
2022-11-16T13:48:03.003Z,54.10938
2022-11-16T13:50:03.000Z,53.50391
2022-11-16T13:52:40.367Z,53.55078
2022-11-16T13:54:44.363Z,53.70703
2022-11-16T13:56:03.104Z,53.24902
2022-11-16T13:58:03.000Z,53.19141
2022-11-16T14:01:10.359Z,53.28418
2022-11-16T14:03:10.150Z,53.10352
2022-11-16T14:05:10.212Z,53.02637
2022-11-16T14:07:10.261Z,53.07422
2022-11-16T14:09:10.256Z,52.76758
2022-11-16T14:11:10.205Z,52.85352
2022-11-16T14:13:10.087Z,52.88086
2022-11-16T14:15:51.677Z,52.98145
2022-11-16T14:17:51.684Z,53.05664
2022-11-16T14:19:51.796Z,52.70117
2022-11-16T14:21:51.680Z,52.68652
2022-11-16T14:23:51.737Z,52.85156
2022-11-16T14:25:51.795Z,52.69727
2022-11-16T14:27:51.834Z,52.55078
2022-11-16T14:31:17.043Z,53.03516
2022-11-16T14:33:16.980Z,53.29883
2022-11-16T14:35:16.998Z,53.6377
2022-11-16T14:37:17.139Z,53.67383
2022-11-16T14:39:17.028Z,54.03711
2022-11-16T14:41:17.038Z,54.33398
2022-11-16T14:43:17.876Z,54.45898
2022-11-16T14:46:11.584Z,54.25879
2022-11-16T14:48:11.629Z,54.40332
2022-11-16T14:50:11.571Z,54.67188
2022-11-16T14:52:11.580Z,54.87793
2022-11-16T14:54:11.588Z,54.84766
2022-11-16T14:56:11.556Z,54.94824
2022-11-16T14:58:11.740Z,54.75488
2022-11-16T15:01:21.120Z,54.57617
2022-11-16T15:03:21.185Z,54.55273
2022-11-16T15:05:20.951Z,54.24805
2022-11-16T15:07:21.107Z,53.77441
2022-11-16T15:09:21.031Z,53.93945
2022-11-16T15:11:21.084Z,53.39453
2022-11-16T15:13:21.288Z,53.54199
2022-11-16T15:16:34.750Z,53.25098
2022-11-16T15:18:34.535Z,53.48926
2022-11-16T15:20:34.563Z,53.43262
2022-11-16T15:22:34.686Z,53.42578
2022-11-16T15:24:34.552Z,53.0498
2022-11-16T15:26:34.550Z,53.17578
2022-11-16T15:28:34.580Z,53.63184
2022-11-16T15:32:11.730Z,54.5498
2022-11-16T15:34:11.762Z,54.70117
2022-11-16T15:36:11.641Z,55.1748
2022-11-16T15:38:11.497Z,55.21875
2022-11-16T15:40:11.488Z,54.875
2022-11-16T15:42:11.525Z,55.10547
2022-11-16T15:44:16.636Z,55.74121
2022-11-16T15:46:43.339Z,55.77539
2022-11-16T15:48:42.804Z,56.19727
2022-11-16T15:50:42.711Z,56.34277
2022-11-16T15:52:42.714Z,56.63281
2022-11-16T15:54:42.982Z,56.87988
2022-11-16T15:56:42.884Z,57.72266
2022-11-16T15:58:42.807Z,58.06641
2022-11-16T16:02:18.648Z,59.23242
2022-11-16T16:04:18.544Z,59.55176
2022-11-16T16:06:18.464Z,60.41406
2022-11-16T16:08:18.597Z,60.29688
2022-11-16T16:10:18.176Z,60.8877
2022-11-16T16:12:18.213Z,61.9043
2022-11-16T16:14:18.165Z,61.82031
2022-11-16T16:17:00.896Z,62.2998
2022-11-16T16:19:09.849Z,62.21875
2022-11-16T16:21:01.036Z,62.81641
2022-11-16T16:23:00.931Z,63.67188
2022-11-16T16:25:00.888Z,63.6875
2022-11-16T16:27:00.998Z,64.02246
2022-11-16T16:29:00.899Z,64.77246
2022-11-16T16:32:39.968Z,64.80078
2022-11-16T16:34:42.654Z,64.34277
2022-11-16T16:36:40.062Z,64.51855
2022-11-16T16:38:39.915Z,65.30273
2022-11-16T16:40:39.971Z,66.01563
2022-11-16T16:42:39.933Z,66.20898
2022-11-16T16:44:39.921Z,66.39453
2022-11-16T16:47:39.614Z,66.33301
2022-11-16T16:49:39.633Z,66.5166
2022-11-16T16:51:39.788Z,66.31836
2022-11-16T16:53:39.790Z,66.24023
2022-11-16T16:55:39.637Z,66.22266
2022-11-16T16:57:39.727Z,65.92969
2022-11-16T16:59:39.668Z,66.26563
2022-11-16T17:02:46.366Z,66.31738
2022-11-16T17:04:46.252Z,66.0293
2022-11-16T17:06:47.077Z,66.18066
2022-11-16T17:08:46.389Z,66.24512
2022-11-16T17:10:46.231Z,66.34375
2022-11-16T17:12:46.251Z,66.3877
2022-11-16T17:14:46.295Z,66.77246
2022-11-16T17:17:44.399Z,67.35742
2022-11-16T17:19:44.377Z,67.76172
2022-11-16T17:21:44.284Z,67.52344
2022-11-16T17:23:44.441Z,68.23535
2022-11-16T17:25:44.463Z,68.44238
2022-11-16T17:27:44.345Z,69.03223
2022-11-16T17:29:44.283Z,68.96484
2022-11-16T17:32:40.373Z,69.13086
2022-11-16T17:34:40.426Z,69.28711
2022-11-16T17:36:40.381Z,69.7959
2022-11-16T17:38:40.540Z,69.78613
2022-11-16T17:40:40.468Z,70.16113
2022-11-16T17:42:40.646Z,70.24902
2022-11-16T17:44:40.310Z,70.45605
2022-11-16T17:46:40.376Z,70.61523
2022-11-16T17:47:59.442Z,70.32617
2022-11-16T17:49:59.339Z,71.2832
2022-11-16T17:51:59.279Z,71.07422
2022-11-16T17:53:59.448Z,71.41797
2022-11-16T17:55:59.481Z,71.21875
2022-11-16T17:57:59.408Z,71.58887
2022-11-16T17:59:59.528Z,71.62109
2022-11-16T18:01:59.259Z,71.82129
2022-11-16T18:03:06.935Z,72.02637
2022-11-16T18:05:06.815Z,71.82324
2022-11-16T18:07:06.979Z,72.04297
2022-11-16T18:09:06.828Z,71.67285
2022-11-16T18:11:06.944Z,71.53027
2022-11-16T18:13:06.932Z,71.78516
2022-11-16T18:15:32.721Z,72.2041
2022-11-16T18:17:06.886Z,71.94043
2022-11-16T18:18:14.915Z,72.12402
2022-11-16T18:20:15.098Z,71.83105
2022-11-16T18:22:15.166Z,71.75391
2022-11-16T18:24:15.032Z,72.40527
2022-11-16T18:26:14.938Z,72.52246
2022-11-16T18:28:15.014Z,72.42285
2022-11-16T18:30:14.982Z,72.00391
2022-11-16T18:32:15.039Z,72.20508
2022-11-16T18:34:01.440Z,72.56445
2022-11-16T18:36:01.550Z,72.95996
2022-11-16T18:38:01.561Z,72.91406
2022-11-16T18:40:01.406Z,73.18848
2022-11-16T18:42:01.347Z,72.84473
2022-11-16T18:44:01.513Z,72.47559
2022-11-16T18:46:01.357Z,72.56641
2022-11-16T18:49:20.014Z,72.96973
2022-11-16T18:51:20.019Z,72.72656
2022-11-16T18:53:19.934Z,72.95215
2022-11-16T18:55:20.012Z,72.61035
2022-11-16T18:57:20.246Z,72.71094
2022-11-16T18:59:20.083Z,72.94824
2022-11-16T19:01:20.257Z,72.75098
2022-11-16T19:04:22.400Z,73.06152
2022-11-16T19:06:22.327Z,72.77441
2022-11-16T19:08:22.306Z,72.80469
2022-11-16T19:10:22.401Z,72.875
2022-11-16T19:12:22.467Z,72.85742
2022-11-16T19:14:22.597Z,72.93555
2022-11-16T19:16:22.287Z,73.14648
2022-11-16T19:18:50.570Z,73.3877
2022-11-16T19:20:50.503Z,73.39258
2022-11-16T19:22:50.475Z,73.49414
2022-11-16T19:24:50.555Z,73.80176
2022-11-16T19:26:50.614Z,73.74902
2022-11-16T19:28:50.689Z,73.30469
2022-11-16T19:30:50.772Z,73.1084
2022-11-16T19:32:50.442Z,73.41113
2022-11-16T19:34:33.699Z,73.49219
2022-11-16T19:36:28.949Z,73.32617
2022-11-16T19:38:28.970Z,73.3916
2022-11-16T19:40:28.767Z,73.63574
2022-11-16T19:42:29.415Z,73.89551
2022-11-16T19:44:28.770Z,73.5625
2022-11-16T19:46:29.216Z,73.44531
2022-11-16T19:49:07.996Z,73.60059
2022-11-16T19:51:08.032Z,74.04004
2022-11-16T19:53:07.968Z,74.01074
2022-11-16T19:55:08.041Z,74.29785
2022-11-16T19:57:08.052Z,73.63477
2022-11-16T19:59:07.952Z,74.2666
2022-11-16T20:01:08.321Z,74.24023
2022-11-16T20:03:08.271Z,74.64746
2022-11-16T20:04:52.089Z,74.28223
2022-11-16T20:06:52.186Z,74.12207
2022-11-16T20:08:52.104Z,74.69824
2022-11-16T20:10:52.085Z,75.7998
2022-11-16T20:12:52.096Z,75.61914
2022-11-16T20:14:52.584Z,75.40527
2022-11-16T20:16:52.049Z,75.63574
2022-11-16T20:20:11.708Z,75.59473
2022-11-16T20:22:11.704Z,75.91699
2022-11-16T20:24:12.411Z,75.7998
2022-11-16T20:26:11.614Z,76.03223
2022-11-16T20:28:11.617Z,75.82031
2022-11-16T20:30:11.588Z,75.7627
2022-11-16T20:32:11.546Z,76.11621
2022-11-16T20:34:58.993Z,76.19824
2022-11-16T20:36:59.116Z,76.28027
2022-11-16T20:38:59.012Z,76.85742
2022-11-16T20:40:58.981Z,76.1543
2022-11-16T20:42:59.084Z,76.29688
2022-11-16T20:44:59.009Z,76.00488
2022-11-16T20:46:59.033Z,75.97168
2022-11-16T20:50:23.542Z,75.73926
2022-11-16T20:52:23.702Z,76.38672
2022-11-16T20:54:23.560Z,75.99121
2022-11-16T20:56:23.555Z,75.44531
2022-11-16T20:58:23.530Z,75.16992
2022-11-16T21:00:23.582Z,75.37695
2022-11-16T21:02:23.628Z,75.37695
2022-11-16T21:05:03.778Z,75.03809
2022-11-16T21:07:03.839Z,75.44141
2022-11-16T21:09:03.652Z,75.04785
2022-11-16T21:11:03.554Z,75.37988
2022-11-16T21:13:03.553Z,75.37793
2022-11-16T21:15:03.591Z,75.85547
2022-11-16T21:17:03.536Z,75.55762
2022-11-16T21:19:03.673Z,74.98145
2022-11-16T21:20:27.258Z,75.14844
2022-11-16T21:22:11.138Z,75.28223
2022-11-16T21:24:11.414Z,76.26855
2022-11-16T21:26:11.168Z,75.73047
2022-11-16T21:28:11.167Z,75.63477
2022-11-16T21:30:11.161Z,75.5498
2022-11-16T21:32:11.171Z,75.40918
2022-11-16T21:34:11.186Z,75.37988
2022-11-16T21:35:48.348Z,75.45117
2022-11-16T21:37:48.321Z,75.17773
2022-11-16T21:39:48.545Z,75.4375
2022-11-16T21:41:48.414Z,75.51563
2022-11-16T21:43:48.489Z,75.0127
2022-11-16T21:45:48.504Z,75.40039
2022-11-16T21:47:48.433Z,75.17188
2022-11-16T21:50:58.893Z,75.17773
2022-11-16T21:52:58.648Z,75.13477
2022-11-16T21:54:58.901Z,75.00488
2022-11-16T21:56:58.649Z,74.70898
2022-11-16T21:58:58.695Z,74.90039
2022-11-16T22:00:58.809Z,74.91211
2022-11-16T22:02:58.622Z,74.94727
2022-11-16T22:06:20.492Z,74.62207
2022-11-16T22:08:20.448Z,74.26855
2022-11-16T22:10:20.759Z,74.79395
2022-11-16T22:12:20.435Z,74.61035
2022-11-16T22:14:20.480Z,74.37988
2022-11-16T22:16:20.441Z,74.54688
2022-11-16T22:18:20.482Z,74.31641
2022-11-16T22:20:52.622Z,74.40918
2022-11-16T22:22:52.659Z,74.96582
2022-11-16T22:24:52.762Z,74.98828
2022-11-16T22:26:53.060Z,74.63965
2022-11-16T22:28:52.736Z,75.15137
2022-11-16T22:30:52.757Z,75.08105
2022-11-16T22:32:52.663Z,75.04297
2022-11-16T22:34:52.664Z,74.75
2022-11-16T22:36:43.392Z,74.38867
2022-11-16T22:38:43.442Z,74.48242
2022-11-16T22:40:43.383Z,74.43262
2022-11-16T22:42:43.555Z,74.12402
2022-11-16T22:44:43.421Z,74.36035
2022-11-16T22:46:43.379Z,73.79102
2022-11-16T22:48:43.392Z,73.92676
2022-11-16T22:51:34.514Z,74.02344
2022-11-16T22:53:35.406Z,73.25098
2022-11-16T22:55:34.516Z,73.11133
2022-11-16T22:57:34.517Z,73.20605
2022-11-16T22:59:34.536Z,73.125
2022-11-16T23:01:34.532Z,73.08301
2022-11-16T23:03:35.607Z,72.81543
2022-11-16T23:06:31.473Z,73.35742
2022-11-16T23:08:31.391Z,73.27734
2022-11-16T23:10:31.384Z,73.23145
2022-11-16T23:12:31.418Z,72.93848
2022-11-16T23:14:31.383Z,72.64063
2022-11-16T23:16:31.544Z,72.83984
2022-11-16T23:18:31.406Z,72.54492
2022-11-16T23:22:07.961Z,72.49121
2022-11-16T23:24:07.946Z,72.47949
2022-11-16T23:26:08.039Z,72.12695
2022-11-16T23:28:07.963Z,72.53125
2022-11-16T23:30:13.397Z,72.3125
2022-11-16T23:32:08.089Z,71.83203
2022-11-16T23:34:07.968Z,72.03027
2022-11-16T23:36:58.036Z,71.8457
2022-11-16T23:38:58.197Z,72.52832
2022-11-16T23:40:58.151Z,71.68945
2022-11-16T23:42:58.130Z,72.16309
2022-11-16T23:44:58.185Z,72.12891
2022-11-16T23:46:58.183Z,71.60645
2022-11-16T23:48:58.306Z,72.10254
2022-11-16T23:52:16.708Z,71.97949
2022-11-16T23:54:16.766Z,72.49805
2022-11-16T23:56:16.735Z,71.82227
2022-11-16T23:58:16.786Z,70.81055
